Extreme weather reports worldwide

High gusts

Station
 
Location
 
Name
 
Wind
Knots
Gust
Knots
Vis
SM
Temp/Dew
C
Baro
inHg
METAR
 
SYA PASY Shemya, US Eareckson Air Station 41 53 7 1/1 29.18 PASY 261558Z 10041G53KT 7SM -RASN OVC012 02/01 A2918 RMK AO2A SLP884 ALSTG/SLP ESTMD WND DATA ESTMD T00170014 RVRNO PNO FZRANO $
CWDA 37 46 -2/ CWDA 261600Z AUTO 28037G46KT M03/ RMK AO1 PK WND 28046/1548 T1025
VXE GVSV São Pedro, CV São Pedro Airport 31 41 6.21 24/17 29.91 GVSV 261700Z 05031G41KT 9999 FEW017 SCT200 24/17 Q1013 NOSIG
PSY SFAL Stanley, FK Port Stanley Airport 28 40 6.21 8/2 29.82 SFAL 261650Z 22028G40KT 9999 BKN033 08/02 Q1010
YMJ CYMJ Moose Jaw, CA Moose Jaw Air Vice Marshal C. M. McEwen Airport 32 39 15 1/-1 29.65 CYMJ 261600Z 29032G39KT 15SM BKN018 OVC026 01/M01 A2965 RMK SC6SC2 SLP068

Station
 
Location
 
Name
 
Wind
Knots
Gust
Knots
Vis
SM
Temp/Dew
C
Baro
inHg
METAR
 
SYY EGPO Stornoway, GB Stornoway Airport 23 39 6.21 10/8 29.70 EGPO 261650Z 25023G39KT 9999 VCSH FEW010 SCT015 BKN022 10/08 Q1006
YQV CYQV Yorkton, CA Yorkton Municipal Airport 27 39 1.75 -2/-4 29.44 CYQV 261701Z AUTO 32027G39KT 1 3/4SM -SN BKN021 BKN028 OVC037 M02/M04 A2944 RMK VIS VRB 1 1/4-3 PRESRR SLP996
AOK LGKP Karpathos Island, GR Karpathos Airport 27 38 6.21 8/0 30.03 LGKP 261650Z 33027G38KT 9999 BKN020 08/00 Q1017
GIB LXGB Gibraltar, GI Gibraltar Airport 25 38 5.59 15/11 30.18 LXGB 261650Z 08025G38KT 9000 HZ FEW017 SCT045 BKN200 15/11 Q1022 TEMPO SCT017
WPU SCGZ Puerto Williams, CL Guardiamarina Zañartu Airport 27 38 6.21 11/2 29.79 SCGZ 261700Z 28027G38KT 9999 FEW040 BKN050 BKN080 11/02 Q1009
INV EGPE Inverness, GB Inverness Airport 25 37 6.21 10/8 29.76 EGPE 261650Z 22025G37KT 9999 FEW005 SCT025 BKN048 10/08 Q1008
USH SAWH Ushuahia, AR Malvinas Argentinas Airport 26 37 6.21 11/5 29.82 SAWH 261700Z 24026G37KT 9999 SCT035 BKN070 11/05 Q1010
CWIW 26 36 0/-3 CWIW 261600Z AUTO 33026G36KT M01/M03 RMK AO1 PRESRR SOG 15 3048 PK WND 32041/1515 SLP043 T10081030
YCY CYCY Clyde River, CA Clyde River Airport 30 36 0.13 -23/-25 29.61 CYCY 261600Z AUTO 31030G36KT 1/8SM +SN BLSN BKN017 OVC021 M23/M25 A2961 RMK PRESFR SLP034
CZCP 27 36 -16/-17 29.99 CZCP 261600Z AUTO 30027G36KT ////SM //// OVC014 M16/M17 A2999
CWXR 31 36 -14/-15 29.95 CWXR 261639Z AUTO 31031G36KT ////SM NCD M14/M15 A2995
ADK PADK Adak Island, US Adak Airport 26 36 10 2/-1 29.80 PADK 261656Z AUTO 12026G36KT 10SM OVC028 02/M02 A2980 RMK AO2 PK WND 14040/1626 SLP090 T00221017 FZRANO
KXWA 27 36 9 -1/-5 29.72 KXWA 261704Z AUTO 30027G36KT 9SM BKN023 M01/M06 A2972 RMK AO2 PK WND 29036/1702 T10111056
CWKO 23 35 -1/-5 CWKO 261600Z AUTO 31023G35KT M02/M05 RMK AO1 SOG 03 3009 PK WND 31037/1510 SLP106 T10181050
CWKP 28 35 / CWKP 261600Z AUTO 28028G35KT ////SM OVC004 ///// A////
YQR CYQR Regina, CA Regina International Airport 26 35 12 1/-2 29.59 CYQR 261615Z 30026G35KT 12SM DRSN FEW015 BKN023 01/M02 A2959 RMK SC2SC5 PRESRR SLP058
YZU CYZU Whitecourt, CA Whitecourt Airport 27 35 15 1/-4 29.99 CYZU 261635Z 31027G35KT 15SM -SN BKN040 01/M04 A2999 RMK SC6 PRESRR SLP186
YUD CYMU Umiujaq, CA Umiujaq Airport 23 35 5 -23/-27 29.71 CYMU 261637Z 18023G35KT 5SM -SN DRSN BKN015 OVC035 M23/M27 A2971 RMK ST6SC2 CIG VRB 13-17 SLP073
LVM KLVM Livingston, US Mission Field 28 35 10 0/-11 30.03 KLVM 261653Z AUTO 23028G35KT 10SM CLR 01/M11 A3003 RMK AO2 PK WND 22037/1614 SLP199 T00061111
YYQ CYYQ Churchill, CA Churchill Airport 28 34 0.75 -17/-20 29.18 CYYQ 261600Z 35028G34KT 3/4SM R33/3500VP6000FT/U -SN BLSN BKN029 M17/M20 A2918 RMK BLSN3SC4 SLP888
YPH CYPH Inukjuak, CA Inukjuak Airport 22 34 0.38 -22/-26 29.46 CYPH 261631Z AUTO 19022G34KT 3/8SM SN BLSN BKN015 BKN071 M22/M26 A2946 RMK SLP981
TRE EGPU Balemartine, GB Tiree Airport 24 34 1.12 11/10 29.94 EGPU 261650Z 24024G34KT 1800 RADZ OVC004 11/10 Q1014
EGQM 22 34 6.21 8/5 30.06 EGQM 261650Z AUTO 23022G34KT 9999 BKN016/// BKN250/// 08/05 Q1018
RKS KRKS Rock Springs, US Southwest Wyoming Regional Airport 27 34 10 -6/-13 30.12 KRKS 261654Z AUTO 25027G34KT 10SM CLR M06/M13 A3012 RMK AO2 PK WND 24034/1653 SLP259 T10611133
K6S0 28 34 10 2/-14 30.01 K6S0 261655Z AUTO 24028G34KT 10SM CLR 02/M14 A3001 RMK A01
K96D 24 34 5 -2/-6 29.41 K96D 261655Z AUTO 25024G34KT 5SM HZ CLR M02/M06 A2941 RMK AO2
MDQ SAZM Mar del Plata, AR Ástor Piazzola International Airport 24 34 6.21 21/8 30.03 SAZM 261700Z 16024G34KT CAVOK 21/08 Q1017 RMK PP///
CZMJ 26 33 0/-1 CZMJ 261600Z AUTO 30026G33KT 01/M02 RMK AO1 SOG 08 3025 PK WND 29037/1517 SLP074 T00081018
KSU ENKB Kvernberget, NO Kristiansund Airport (Kvernberget) 19 33 6.21 4/2 29.50 ENKB 261650Z 24019G33KT 9999 SCT018 BKN029 BKN038 04/02 Q0999 RMK WIND 745FT 26030G40KT
GGW KGGW Glasgow, US Wokal Field/Glasgow-Valley County Airport 24 33 10 2/-5 29.85 KGGW 261653Z AUTO 31024G33KT 10SM FEW036 03/M05 A2985 RMK AO2 PK WND 31033/1653 SLP139 T00281050
MOT KMOT Minot, US Minot International Airport 22 33 10 1/-6 29.59 KMOT 261654Z 25022G33KT 10SM CLR 01/M06 A2959 RMK AO2 PK WND 25033/1647 SLP048 T00111061
KC99 21 33 7 -12/-22 29.95 KC99 261655Z AUTO 31021G33KT 7SM CLR M12/M22 A2995 RMK AO2
CWJI 23 32 -1/-3 CWJI 261600Z AUTO 30023G32KT M01/M03 RMK AO1 SOG 07 3017 PK WND 30032/1552 SLP086 T10101034
CWLE 26 32 0/-2 CWLE 261600Z AUTO 31026G32KT 00/M02 RMK AO1 SOG 14 3033 PK WND 31036/1503 SLP086 T00001024
YXE CYXE Saskatoon, CA Saskatoon John G. Diefenbaker International Airport 26 32 15 1/-4 29.65 CYXE 261600Z 33026G32KT 15SM OVC033 01/M04 A2965 RMK SC8 SLP070
EAN KEAN Wheatland, US Phifer Airfield 23 32 10 0/-12 30.00 KEAN 261650Z AUTO 27023G32KT 10SM 00/M12 A3000 RMK AO2 T00031124
DLM LTBS Dalaman, TR Dalaman International Airport 22 32 6.21 5/-7 29.97 LTBS 261650Z 01022G32KT CAVOK 05/M07 Q1015 NOSIG RMK RWY19 01023G34KT SKC
CPR KCPR Casper, US Casper-Natrona County International Airport 24 32 10 -5/-11 30.00 KCPR 261653Z 20024G32KT 10SM CLR M05/M11 A3000 RMK AO2 PK WND 21032/1558 SNE1555 SLP213 P0000 T10501111
TTO KBTN Britton, US Britton Municipal Airport 22 32 3 -8/-10 29.79 KBTN 261655Z AUTO 21022G32KT 3SM -SN BR CLR M08/M10 A2979 RMK AO2
KD50 24 32 10 0/-1 29.64 KD50 261655Z AUTO 28024G32KT 10SM BKN020 BKN026 OVC038 M00/M01 A2964 RMK AO2
PWD KPWD Plentywood, US Sher-Wood Airport 25 32 10 0/-3 29.70 KPWD 261655Z AUTO 30025G32KT 10SM OVC022 M00/M03 A2970 RMK AO2
CWWF 24 31 -1/-2 CWWF 261600Z AUTO 31024G31KT M01/M03 RMK AO1 SOG 16 5003 PK WND 30036/1533 SLP042 T10141027 50001
KGRY 26 31 10 / 30.19 KGRY 261650Z AUTO 04026G31KT 10SM BKN017 OVC022 A3019 RMK A01
K2D5 25 31 2.5 -11/-13 29.76 K2D5 261655Z AUTO 20025G31KT 2 1/2SM -SN CLR M11/M13 A2976 RMK AO2
KGWR Gwinner, US Gwinner Roger Melroe Field 26 31 0.75 -9/-9 29.74 KGWR 261655Z AUTO 22026G31KT 3/4SM BR VV005 M09/M09 A2974 RMK A01